sensor_id;sensor_type;location;lat;lon;timestamp;P1;durP1;ratioP1;P2;durP2;ratioP2
64894;SDS011;51588;53.702;10.208;2023-12-07T00:00:08;30.33;;;19.97;;
64894;SDS011;51588;53.702;10.208;2023-12-07T00:02:35;30.77;;;20.03;;
64894;SDS011;51588;53.702;10.208;2023-12-07T00:05:01;27.70;;;19.63;;
64894;SDS011;51588;53.702;10.208;2023-12-07T00:07:30;33.07;;;20.77;;
64894;SDS011;51588;53.702;10.208;2023-12-07T00:09:56;27.87;;;18.77;;
64894;SDS011;51588;53.702;10.208;2023-12-07T00:12:22;29.17;;;18.90;;
64894;SDS011;51588;53.702;10.208;2023-12-07T00:14:49;30.60;;;20.30;;
64894;SDS011;51588;53.702;10.208;2023-12-07T00:17:15;33.50;;;21.03;;
64894;SDS011;51588;53.702;10.208;2023-12-07T00:19:42;31.53;;;18.70;;
64894;SDS011;51588;53.702;10.208;2023-12-07T00:22:08;29.10;;;19.13;;
64894;SDS011;51588;53.702;10.208;2023-12-07T00:24:36;28.10;;;19.40;;
64894;SDS011;51588;53.702;10.208;2023-12-07T00:27:02;30.40;;;20.23;;
64894;SDS011;51588;53.702;10.208;2023-12-07T00:29:30;29.33;;;19.00;;
64894;SDS011;51588;53.702;10.208;2023-12-07T00:31:56;28.83;;;20.20;;
64894;SDS011;51588;53.702;10.208;2023-12-07T00:34:23;29.17;;;18.97;;
64894;SDS011;51588;53.702;10.208;2023-12-07T00:36:49;32.20;;;21.10;;
64894;SDS011;51588;53.702;10.208;2023-12-07T00:39:15;27.80;;;18.47;;
64894;SDS011;51588;53.702;10.208;2023-12-07T00:41:44;28.67;;;19.53;;
64894;SDS011;51588;53.702;10.208;2023-12-07T00:44:12;31.03;;;20.30;;
64894;SDS011;51588;53.702;10.208;2023-12-07T00:46:39;30.23;;;19.80;;
64894;SDS011;51588;53.702;10.208;2023-12-07T00:49:05;31.03;;;19.73;;
64894;SDS011;51588;53.702;10.208;2023-12-07T00:51:32;29.60;;;19.67;;
64894;SDS011;51588;53.702;10.208;2023-12-07T00:53:58;28.07;;;18.70;;
64894;SDS011;51588;53.702;10.208;2023-12-07T00:56:24;28.63;;;19.40;;
64894;SDS011;51588;53.702;10.208;2023-12-07T00:58:52;29.10;;;19.70;;
64894;SDS011;51588;53.702;10.208;2023-12-07T01:01:19;28.73;;;19.93;;
64894;SDS011;51588;53.702;10.208;2023-12-07T01:03:45;26.00;;;18.50;;
64894;SDS011;51588;53.702;10.208;2023-12-07T01:06:11;28.67;;;19.27;;
64894;SDS011;51588;53.702;10.208;2023-12-07T01:08:38;29.17;;;19.37;;
64894;SDS011;51588;53.702;10.208;2023-12-07T01:11:04;28.97;;;19.70;;
64894;SDS011;51588;53.702;10.208;2023-12-07T01:13:31;27.77;;;18.83;;
64894;SDS011;51588;53.702;10.208;2023-12-07T01:15:58;27.57;;;18.77;;
64894;SDS011;51588;53.702;10.208;2023-12-07T01:18:25;28.67;;;19.67;;
64894;SDS011;51588;53.702;10.208;2023-12-07T01:20:52;30.73;;;20.20;;
64894;SDS011;51588;53.702;10.208;2023-12-07T01:23:18;32.10;;;20.00;;
64894;SDS011;51588;53.702;10.208;2023-12-07T01:25:44;28.67;;;19.73;;
64894;SDS011;51588;53.702;10.208;2023-12-07T01:28:11;27.63;;;19.60;;
64894;SDS011;51588;53.702;10.208;2023-12-07T01:30:37;27.67;;;18.17;;
64894;SDS011;51588;53.702;10.208;2023-12-07T01:33:05;27.00;;;18.60;;
64894;SDS011;51588;53.702;10.208;2023-12-07T01:35:32;28.20;;;19.00;;
64894;SDS011;51588;53.702;10.208;2023-12-07T01:37:58;28.97;;;19.97;;
64894;SDS011;51588;53.702;10.208;2023-12-07T01:40:24;31.67;;;20.77;;
64894;SDS011;51588;53.702;10.208;2023-12-07T01:42:51;28.73;;;18.60;;
64894;SDS011;51588;53.702;10.208;2023-12-07T01:45:17;29.60;;;19.13;;
64894;SDS011;51588;53.702;10.208;2023-12-07T01:47:44;29.20;;;18.77;;
64894;SDS011;51588;53.702;10.208;2023-12-07T01:50:13;29.63;;;19.77;;
64894;SDS011;51588;53.702;10.208;2023-12-07T01:52:42;27.00;;;18.47;;
64894;SDS011;51588;53.702;10.208;2023-12-07T01:55:09;29.10;;;19.40;;
64894;SDS011;51588;53.702;10.208;2023-12-07T01:57:36;27.73;;;18.80;;
64894;SDS011;51588;53.702;10.208;2023-12-07T02:00:03;25.47;;;16.87;;
64894;SDS011;51588;53.702;10.208;2023-12-07T02:02:30;28.37;;;18.43;;
64894;SDS011;51588;53.702;10.208;2023-12-07T02:04:57;26.60;;;18.37;;
64894;SDS011;51588;53.702;10.208;2023-12-07T02:07:24;28.70;;;18.50;;
64894;SDS011;51588;53.702;10.208;2023-12-07T02:09:52;29.33;;;18.27;;
64894;SDS011;51588;53.702;10.208;2023-12-07T02:12:18;26.70;;;18.20;;
64894;SDS011;51588;53.702;10.208;2023-12-07T02:14:45;28.47;;;18.40;;
64894;SDS011;51588;53.702;10.208;2023-12-07T02:17:14;27.37;;;17.40;;
64894;SDS011;51588;53.702;10.208;2023-12-07T02:22:31;27.13;;;17.70;;
64894;SDS011;51588;53.702;10.208;2023-12-07T02:25:04;29.77;;;17.33;;
64894;SDS011;51588;53.702;10.208;2023-12-07T02:27:36;27.33;;;17.60;;
64894;SDS011;51588;53.702;10.208;2023-12-07T02:30:03;26.87;;;17.17;;
64894;SDS011;51588;53.702;10.208;2023-12-07T02:32:29;25.47;;;17.30;;
64894;SDS011;51588;53.702;10.208;2023-12-07T02:34:56;25.80;;;16.90;;
64894;SDS011;51588;53.702;10.208;2023-12-07T02:37:22;27.13;;;17.80;;
64894;SDS011;51588;53.702;10.208;2023-12-07T02:39:52;25.90;;;16.90;;
64894;SDS011;51588;53.702;10.208;2023-12-07T02:42:18;27.67;;;18.03;;
64894;SDS011;51588;53.702;10.208;2023-12-07T02:44:47;23.10;;;15.97;;
64894;SDS011;51588;53.702;10.208;2023-12-07T02:47:13;25.70;;;17.47;;
64894;SDS011;51588;53.702;10.208;2023-12-07T02:49:40;25.17;;;17.07;;
64894;SDS011;51588;53.702;10.208;2023-12-07T02:52:06;24.70;;;16.33;;
64894;SDS011;51588;53.702;10.208;2023-12-07T02:54:32;26.80;;;17.60;;
64894;SDS011;51588;53.702;10.208;2023-12-07T02:56:59;24.87;;;16.60;;
64894;SDS011;51588;53.702;10.208;2023-12-07T02:59:25;25.37;;;16.70;;
64894;SDS011;51588;53.702;10.208;2023-12-07T03:01:54;24.50;;;16.30;;
64894;SDS011;51588;53.702;10.208;2023-12-07T03:04:20;26.97;;;17.73;;
64894;SDS011;51588;53.702;10.208;2023-12-07T03:06:46;25.13;;;17.17;;
64894;SDS011;51588;53.702;10.208;2023-12-07T03:09:13;27.53;;;17.23;;
64894;SDS011;51588;53.702;10.208;2023-12-07T03:11:39;29.70;;;16.90;;
64894;SDS011;51588;53.702;10.208;2023-12-07T03:14:05;29.17;;;18.07;;
64894;SDS011;51588;53.702;10.208;2023-12-07T03:16:32;24.97;;;16.77;;
64894;SDS011;51588;53.702;10.208;2023-12-07T03:19:01;27.10;;;17.50;;
64894;SDS011;51588;53.702;10.208;2023-12-07T03:21:28;26.27;;;17.37;;
64894;SDS011;51588;53.702;10.208;2023-12-07T03:23:54;28.97;;;17.33;;
64894;SDS011;51588;53.702;10.208;2023-12-07T03:26:20;28.30;;;17.50;;
64894;SDS011;51588;53.702;10.208;2023-12-07T03:28:47;25.77;;;17.50;;
64894;SDS011;51588;53.702;10.208;2023-12-07T03:31:13;27.10;;;17.47;;
64894;SDS011;51588;53.702;10.208;2023-12-07T03:33:40;26.30;;;16.50;;
64894;SDS011;51588;53.702;10.208;2023-12-07T03:36:10;24.10;;;16.10;;
64894;SDS011;51588;53.702;10.208;2023-12-07T03:38:36;26.37;;;17.53;;
64894;SDS011;51588;53.702;10.208;2023-12-07T03:41:03;25.80;;;16.30;;
64894;SDS011;51588;53.702;10.208;2023-12-07T03:43:30;28.50;;;17.03;;
64894;SDS011;51588;53.702;10.208;2023-12-07T03:45:56;25.93;;;16.30;;
64894;SDS011;51588;53.702;10.208;2023-12-07T03:48:22;26.63;;;16.67;;
64894;SDS011;51588;53.702;10.208;2023-12-07T03:50:49;27.03;;;17.13;;
64894;SDS011;51588;53.702;10.208;2023-12-07T03:53:17;26.30;;;16.77;;
64894;SDS011;51588;53.702;10.208;2023-12-07T03:55:43;28.20;;;16.20;;
64894;SDS011;51588;53.702;10.208;2023-12-07T03:58:09;23.27;;;16.40;;
64894;SDS011;51588;53.702;10.208;2023-12-07T04:00:36;28.13;;;17.53;;
64894;SDS011;51588;53.702;10.208;2023-12-07T04:03:02;26.00;;;16.57;;
64894;SDS011;51588;53.702;10.208;2023-12-07T04:05:28;26.90;;;16.90;;
64894;SDS011;51588;53.702;10.208;2023-12-07T04:07:55;23.33;;;15.87;;
64894;SDS011;51588;53.702;10.208;2023-12-07T04:10:23;24.20;;;16.93;;
64894;SDS011;51588;53.702;10.208;2023-12-07T04:12:50;26.20;;;15.37;;
64894;SDS011;51588;53.702;10.208;2023-12-07T04:15:17;25.40;;;16.63;;
64894;SDS011;51588;53.702;10.208;2023-12-07T04:17:44;24.97;;;16.70;;
64894;SDS011;51588;53.702;10.208;2023-12-07T04:20:11;26.30;;;16.40;;
64894;SDS011;51588;53.702;10.208;2023-12-07T04:22:38;24.93;;;16.57;;
64894;SDS011;51588;53.702;10.208;2023-12-07T04:25:05;24.33;;;16.10;;
64894;SDS011;51588;53.702;10.208;2023-12-07T04:27:33;24.60;;;16.23;;
64894;SDS011;51588;53.702;10.208;2023-12-07T04:30:00;26.30;;;17.20;;
64894;SDS011;51588;53.702;10.208;2023-12-07T04:32:26;27.83;;;17.00;;
64894;SDS011;51588;53.702;10.208;2023-12-07T04:34:52;26.27;;;16.20;;
64894;SDS011;51588;53.702;10.208;2023-12-07T04:37:19;23.60;;;15.40;;
64894;SDS011;51588;53.702;10.208;2023-12-07T04:39:46;27.07;;;15.90;;
64894;SDS011;51588;53.702;10.208;2023-12-07T04:42:12;26.13;;;14.80;;
64894;SDS011;51588;53.702;10.208;2023-12-07T04:44:40;25.63;;;15.60;;
64894;SDS011;51588;53.702;10.208;2023-12-07T04:47:06;25.50;;;16.60;;
64894;SDS011;51588;53.702;10.208;2023-12-07T04:49:33;24.23;;;16.07;;
64894;SDS011;51588;53.702;10.208;2023-12-07T04:51:59;25.60;;;15.50;;
64894;SDS011;51588;53.702;10.208;2023-12-07T04:54:25;24.50;;;16.10;;
64894;SDS011;51588;53.702;10.208;2023-12-07T04:56:52;21.47;;;15.27;;
64894;SDS011;51588;53.702;10.208;2023-12-07T04:59:19;24.90;;;15.53;;
64894;SDS011;51588;53.702;10.208;2023-12-07T05:01:48;23.50;;;15.57;;
64894;SDS011;51588;53.702;10.208;2023-12-07T05:04:14;24.80;;;15.37;;
64894;SDS011;51588;53.702;10.208;2023-12-07T05:06:40;24.80;;;15.67;;
64894;SDS011;51588;53.702;10.208;2023-12-07T05:09:07;25.73;;;16.17;;
64894;SDS011;51588;53.702;10.208;2023-12-07T05:11:36;25.53;;;16.37;;
64894;SDS011;51588;53.702;10.208;2023-12-07T05:14:02;25.70;;;16.60;;
64894;SDS011;51588;53.702;10.208;2023-12-07T05:16:29;24.83;;;15.40;;
64894;SDS011;51588;53.702;10.208;2023-12-07T05:18:57;22.43;;;15.20;;
64894;SDS011;51588;53.702;10.208;2023-12-07T05:21:23;26.73;;;16.20;;
64894;SDS011;51588;53.702;10.208;2023-12-07T05:23:50;24.33;;;15.53;;
64894;SDS011;51588;53.702;10.208;2023-12-07T05:26:16;23.37;;;15.10;;
64894;SDS011;51588;53.702;10.208;2023-12-07T05:28:42;23.80;;;15.77;;
64894;SDS011;51588;53.702;10.208;2023-12-07T05:31:15;22.60;;;15.23;;
64894;SDS011;51588;53.702;10.208;2023-12-07T05:33:41;24.17;;;15.10;;
64894;SDS011;51588;53.702;10.208;2023-12-07T05:36:09;24.90;;;15.37;;
64894;SDS011;51588;53.702;10.208;2023-12-07T05:38:37;22.40;;;15.40;;
64894;SDS011;51588;53.702;10.208;2023-12-07T05:41:03;23.37;;;14.73;;
64894;SDS011;51588;53.702;10.208;2023-12-07T05:43:30;22.63;;;14.73;;
64894;SDS011;51588;53.702;10.208;2023-12-07T05:45:58;22.67;;;15.17;;
64894;SDS011;51588;53.702;10.208;2023-12-07T05:48:25;25.63;;;15.37;;
64894;SDS011;51588;53.702;10.208;2023-12-07T05:50:52;24.03;;;14.93;;
64894;SDS011;51588;53.702;10.208;2023-12-07T05:53:19;24.83;;;15.27;;
64894;SDS011;51588;53.702;10.208;2023-12-07T05:55:46;24.13;;;14.70;;
64894;SDS011;51588;53.702;10.208;2023-12-07T05:58:13;23.10;;;15.53;;
64894;SDS011;51588;53.702;10.208;2023-12-07T06:00:39;22.60;;;14.40;;
64894;SDS011;51588;53.702;10.208;2023-12-07T06:03:06;21.43;;;13.73;;
64894;SDS011;51588;53.702;10.208;2023-12-07T06:05:34;24.80;;;15.10;;
64894;SDS011;51588;53.702;10.208;2023-12-07T06:08:00;22.27;;;14.70;;
64894;SDS011;51588;53.702;10.208;2023-12-07T06:10:29;26.23;;;14.30;;
64894;SDS011;51588;53.702;10.208;2023-12-07T06:12:56;23.50;;;14.87;;
64894;SDS011;51588;53.702;10.208;2023-12-07T06:15:23;27.70;;;14.30;;
64894;SDS011;51588;53.702;10.208;2023-12-07T06:17:50;74.23;;;22.20;;
64894;SDS011;51588;53.702;10.208;2023-12-07T06:20:16;39.60;;;17.33;;
64894;SDS011;51588;53.702;10.208;2023-12-07T06:22:43;39.30;;;17.50;;
64894;SDS011;51588;53.702;10.208;2023-12-07T06:25:09;31.43;;;17.07;;
64894;SDS011;51588;53.702;10.208;2023-12-07T06:27:37;28.00;;;16.57;;
64894;SDS011;51588;53.702;10.208;2023-12-07T06:30:04;30.30;;;15.93;;
64894;SDS011;51588;53.702;10.208;2023-12-07T06:32:33;30.53;;;17.57;;
64894;SDS011;51588;53.702;10.208;2023-12-07T06:35:00;28.90;;;15.33;;
64894;SDS011;51588;53.702;10.208;2023-12-07T06:37:26;35.37;;;16.80;;
64894;SDS011;51588;53.702;10.208;2023-12-07T06:39:52;46.07;;;18.10;;
64894;SDS011;51588;53.702;10.208;2023-12-07T06:42:19;38.47;;;17.50;;
64894;SDS011;51588;53.702;10.208;2023-12-07T06:44:47;43.63;;;17.70;;
64894;SDS011;51588;53.702;10.208;2023-12-07T06:47:14;33.60;;;16.40;;
64894;SDS011;51588;53.702;10.208;2023-12-07T06:49:41;34.50;;;16.90;;
64894;SDS011;51588;53.702;10.208;2023-12-07T06:52:07;38.50;;;16.97;;
64894;SDS011;51588;53.702;10.208;2023-12-07T06:54:33;42.07;;;17.30;;
64894;SDS011;51588;53.702;10.208;2023-12-07T06:57:00;34.80;;;17.53;;
64894;SDS011;51588;53.702;10.208;2023-12-07T06:59:26;40.30;;;18.67;;
64894;SDS011;51588;53.702;10.208;2023-12-07T07:01:55;35.80;;;19.90;;
64894;SDS011;51588;53.702;10.208;2023-12-07T07:04:21;32.00;;;18.53;;
64894;SDS011;51588;53.702;10.208;2023-12-07T07:06:47;33.53;;;16.80;;
64894;SDS011;51588;53.702;10.208;2023-12-07T07:09:14;35.87;;;18.13;;
64894;SDS011;51588;53.702;10.208;2023-12-07T07:11:40;29.90;;;17.30;;
64894;SDS011;51588;53.702;10.208;2023-12-07T07:14:07;29.40;;;16.37;;
64894;SDS011;51588;53.702;10.208;2023-12-07T07:16:33;28.70;;;16.00;;
64894;SDS011;51588;53.702;10.208;2023-12-07T07:19:01;32.50;;;17.27;;
64894;SDS011;51588;53.702;10.208;2023-12-07T07:21:27;31.57;;;16.40;;
64894;SDS011;51588;53.702;10.208;2023-12-07T07:23:54;31.10;;;17.27;;
64894;SDS011;51588;53.702;10.208;2023-12-07T07:26:21;27.57;;;15.10;;
64894;SDS011;51588;53.702;10.208;2023-12-07T07:28:50;29.90;;;15.87;;
64894;SDS011;51588;53.702;10.208;2023-12-07T07:31:16;32.70;;;16.00;;
64894;SDS011;51588;53.702;10.208;2023-12-07T07:33:43;30.10;;;15.70;;
64894;SDS011;51588;53.702;10.208;2023-12-07T07:36:13;26.73;;;14.77;;
64894;SDS011;51588;53.702;10.208;2023-12-07T07:38:40;23.70;;;14.70;;
64894;SDS011;51588;53.702;10.208;2023-12-07T07:41:06;26.40;;;16.20;;
64894;SDS011;51588;53.702;10.208;2023-12-07T07:43:32;26.83;;;15.60;;
64894;SDS011;51588;53.702;10.208;2023-12-07T07:45:59;26.20;;;14.13;;
64894;SDS011;51588;53.702;10.208;2023-12-07T07:48:26;25.20;;;14.37;;
64894;SDS011;51588;53.702;10.208;2023-12-07T07:50:52;25.70;;;14.63;;
64894;SDS011;51588;53.702;10.208;2023-12-07T07:53:20;29.10;;;15.77;;
64894;SDS011;51588;53.702;10.208;2023-12-07T07:55:46;21.57;;;14.40;;
64894;SDS011;51588;53.702;10.208;2023-12-07T07:58:12;25.07;;;13.70;;
64894;SDS011;51588;53.702;10.208;2023-12-07T08:00:39;30.07;;;15.40;;
64894;SDS011;51588;53.702;10.208;2023-12-07T08:03:05;25.80;;;14.47;;
64894;SDS011;51588;53.702;10.208;2023-12-07T08:05:31;25.03;;;15.50;;
64894;SDS011;51588;53.702;10.208;2023-12-07T08:07:58;24.60;;;14.37;;
64894;SDS011;51588;53.702;10.208;2023-12-07T08:10:26;26.20;;;14.83;;
64894;SDS011;51588;53.702;10.208;2023-12-07T08:12:52;24.70;;;14.67;;
64894;SDS011;51588;53.702;10.208;2023-12-07T08:15:18;24.10;;;14.00;;
64894;SDS011;51588;53.702;10.208;2023-12-07T08:17:46;24.07;;;13.87;;
64894;SDS011;51588;53.702;10.208;2023-12-07T08:20:13;23.07;;;13.50;;
64894;SDS011;51588;53.702;10.208;2023-12-07T08:22:40;24.47;;;13.57;;
64894;SDS011;51588;53.702;10.208;2023-12-07T08:25:07;24.00;;;13.60;;
64894;SDS011;51588;53.702;10.208;2023-12-07T08:27:36;23.60;;;13.47;;
64894;SDS011;51588;53.702;10.208;2023-12-07T08:30:03;22.90;;;14.00;;
64894;SDS011;51588;53.702;10.208;2023-12-07T08:32:29;22.97;;;13.80;;
64894;SDS011;51588;53.702;10.208;2023-12-07T08:34:56;20.60;;;13.37;;
64894;SDS011;51588;53.702;10.208;2023-12-07T08:37:22;26.17;;;14.57;;
64894;SDS011;51588;53.702;10.208;2023-12-07T08:39:49;25.50;;;14.37;;
64894;SDS011;51588;53.702;10.208;2023-12-07T08:42:15;25.83;;;13.63;;
64894;SDS011;51588;53.702;10.208;2023-12-07T08:44:43;23.03;;;13.37;;
64894;SDS011;51588;53.702;10.208;2023-12-07T08:47:10;24.50;;;14.00;;
64894;SDS011;51588;53.702;10.208;2023-12-07T08:49:36;21.83;;;13.83;;
64894;SDS011;51588;53.702;10.208;2023-12-07T08:52:03;22.83;;;13.27;;
64894;SDS011;51588;53.702;10.208;2023-12-07T08:54:29;25.87;;;14.43;;
64894;SDS011;51588;53.702;10.208;2023-12-07T08:56:55;25.67;;;14.00;;
64894;SDS011;51588;53.702;10.208;2023-12-07T08:59:22;21.90;;;13.53;;
64894;SDS011;51588;53.702;10.208;2023-12-07T09:01:50;23.67;;;13.43;;
64894;SDS011;51588;53.702;10.208;2023-12-07T09:04:16;22.33;;;13.67;;
64894;SDS011;51588;53.702;10.208;2023-12-07T09:06:42;22.17;;;13.20;;
64894;SDS011;51588;53.702;10.208;2023-12-07T09:09:09;22.30;;;13.83;;
64894;SDS011;51588;53.702;10.208;2023-12-07T09:11:36;25.00;;;13.53;;
64894;SDS011;51588;53.702;10.208;2023-12-07T09:14:03;21.20;;;12.93;;
64894;SDS011;51588;53.702;10.208;2023-12-07T09:16:29;24.97;;;14.37;;
64894;SDS011;51588;53.702;10.208;2023-12-07T09:18:57;20.27;;;13.27;;
64894;SDS011;51588;53.702;10.208;2023-12-07T09:21:23;22.47;;;13.20;;
64894;SDS011;51588;53.702;10.208;2023-12-07T09:23:50;20.90;;;12.83;;
64894;SDS011;51588;53.702;10.208;2023-12-07T09:26:17;22.10;;;13.50;;
64894;SDS011;51588;53.702;10.208;2023-12-07T09:28:43;24.00;;;13.77;;
64894;SDS011;51588;53.702;10.208;2023-12-07T09:31:10;24.47;;;13.97;;
64894;SDS011;51588;53.702;10.208;2023-12-07T09:33:36;21.57;;;12.47;;
64894;SDS011;51588;53.702;10.208;2023-12-07T09:36:05;21.73;;;13.17;;
64894;SDS011;51588;53.702;10.208;2023-12-07T09:38:34;19.70;;;13.00;;
64894;SDS011;51588;53.702;10.208;2023-12-07T09:41:01;21.53;;;13.40;;
64894;SDS011;51588;53.702;10.208;2023-12-07T09:43:28;21.77;;;13.23;;
64894;SDS011;51588;53.702;10.208;2023-12-07T09:45:54;22.10;;;12.90;;
64894;SDS011;51588;53.702;10.208;2023-12-07T09:48:21;23.33;;;13.20;;
64894;SDS011;51588;53.702;10.208;2023-12-07T09:50:47;20.97;;;13.10;;
64894;SDS011;51588;53.702;10.208;2023-12-07T09:53:15;24.23;;;13.77;;
64894;SDS011;51588;53.702;10.208;2023-12-07T09:55:42;23.60;;;13.87;;
64894;SDS011;51588;53.702;10.208;2023-12-07T09:58:08;21.17;;;13.40;;
64894;SDS011;51588;53.702;10.208;2023-12-07T10:00:35;22.07;;;12.80;;
64894;SDS011;51588;53.702;10.208;2023-12-07T10:03:01;20.20;;;12.20;;
64894;SDS011;51588;53.702;10.208;2023-12-07T10:05:29;20.13;;;12.80;;
64894;SDS011;51588;53.702;10.208;2023-12-07T10:07:55;19.90;;;13.10;;
64894;SDS011;51588;53.702;10.208;2023-12-07T10:10:23;20.37;;;12.83;;
64894;SDS011;51588;53.702;10.208;2023-12-07T10:12:51;19.93;;;13.17;;
64894;SDS011;51588;53.702;10.208;2023-12-07T10:15:18;17.77;;;12.30;;
64894;SDS011;51588;53.702;10.208;2023-12-07T10:17:46;21.53;;;12.87;;
64894;SDS011;51588;53.702;10.208;2023-12-07T10:20:13;20.80;;;13.20;;
64894;SDS011;51588;53.702;10.208;2023-12-07T10:22:40;18.93;;;12.90;;
64894;SDS011;51588;53.702;10.208;2023-12-07T10:25:07;19.50;;;12.70;;
64894;SDS011;51588;53.702;10.208;2023-12-07T10:27:36;18.40;;;12.13;;
64894;SDS011;51588;53.702;10.208;2023-12-07T10:30:04;21.20;;;12.47;;
64894;SDS011;51588;53.702;10.208;2023-12-07T10:32:31;20.33;;;12.77;;
64894;SDS011;51588;53.702;10.208;2023-12-07T10:34:58;19.80;;;12.63;;
64894;SDS011;51588;53.702;10.208;2023-12-07T10:37:26;16.87;;;12.13;;
64894;SDS011;51588;53.702;10.208;2023-12-07T10:39:52;17.37;;;12.00;;
64894;SDS011;51588;53.702;10.208;2023-12-07T10:42:20;19.10;;;12.40;;
64894;SDS011;51588;53.702;10.208;2023-12-07T10:44:52;19.77;;;12.90;;
64894;SDS011;51588;53.702;10.208;2023-12-07T10:47:20;21.10;;;13.20;;
64894;SDS011;51588;53.702;10.208;2023-12-07T10:49:47;18.13;;;12.03;;
64894;SDS011;51588;53.702;10.208;2023-12-07T10:52:16;18.20;;;12.00;;
64894;SDS011;51588;53.702;10.208;2023-12-07T10:54:50;16.67;;;11.70;;
64894;SDS011;51588;53.702;10.208;2023-12-07T10:57:16;20.83;;;12.60;;
64894;SDS011;51588;53.702;10.208;2023-12-07T10:59:43;19.63;;;13.10;;
64894;SDS011;51588;53.702;10.208;2023-12-07T11:02:12;17.63;;;12.47;;
64894;SDS011;51588;53.702;10.208;2023-12-07T11:04:39;18.30;;;12.33;;
64894;SDS011;51588;53.702;10.208;2023-12-07T11:07:07;18.87;;;12.57;;
64894;SDS011;51588;53.702;10.208;2023-12-07T11:09:35;20.10;;;12.53;;
64894;SDS011;51588;53.702;10.208;2023-12-07T11:12:06;17.93;;;12.53;;
64894;SDS011;51588;53.702;10.208;2023-12-07T11:14:36;19.93;;;12.63;;
64894;SDS011;51588;53.702;10.208;2023-12-07T11:17:03;18.20;;;12.60;;
64894;SDS011;51588;53.702;10.208;2023-12-07T11:19:47;19.70;;;12.33;;
64894;SDS011;51588;53.702;10.208;2023-12-07T11:22:14;19.47;;;12.37;;
64894;SDS011;51588;53.702;10.208;2023-12-07T11:24:53;18.37;;;13.10;;
64894;SDS011;51588;53.702;10.208;2023-12-07T11:27:21;16.93;;;12.57;;
64894;SDS011;51588;53.702;10.208;2023-12-07T11:29:47;16.80;;;11.50;;
64894;SDS011;51588;53.702;10.208;2023-12-07T11:32:14;16.60;;;12.47;;
64894;SDS011;51588;53.702;10.208;2023-12-07T11:34:41;18.70;;;12.23;;
64894;SDS011;51588;53.702;10.208;2023-12-07T11:37:09;18.03;;;12.23;;
64894;SDS011;51588;53.702;10.208;2023-12-07T11:39:36;18.23;;;12.53;;
64894;SDS011;51588;53.702;10.208;2023-12-07T11:42:06;15.33;;;11.93;;
64894;SDS011;51588;53.702;10.208;2023-12-07T11:44:33;16.90;;;12.03;;
64894;SDS011;51588;53.702;10.208;2023-12-07T11:47:00;17.17;;;11.50;;
64894;SDS011;51588;53.702;10.208;2023-12-07T11:49:26;18.57;;;12.70;;
64894;SDS011;51588;53.702;10.208;2023-12-07T11:51:53;17.13;;;12.10;;
64894;SDS011;51588;53.702;10.208;2023-12-07T11:54:21;16.73;;;11.73;;
64894;SDS011;51588;53.702;10.208;2023-12-07T11:56:51;17.00;;;11.97;;
64894;SDS011;51588;53.702;10.208;2023-12-07T11:59:18;18.20;;;12.10;;
64894;SDS011;51588;53.702;10.208;2023-12-07T12:01:46;17.33;;;11.60;;
64894;SDS011;51588;53.702;10.208;2023-12-07T12:04:12;17.90;;;12.03;;
64894;SDS011;51588;53.702;10.208;2023-12-07T12:06:39;17.43;;;11.70;;
64894;SDS011;51588;53.702;10.208;2023-12-07T12:09:05;17.17;;;12.40;;
64894;SDS011;51588;53.702;10.208;2023-12-07T12:11:33;20.23;;;12.93;;
64894;SDS011;51588;53.702;10.208;2023-12-07T12:14:01;18.13;;;12.30;;
64894;SDS011;51588;53.702;10.208;2023-12-07T12:16:28;16.60;;;12.33;;
64894;SDS011;51588;53.702;10.208;2023-12-07T12:18:54;18.23;;;12.27;;
64894;SDS011;51588;53.702;10.208;2023-12-07T12:21:21;18.90;;;12.60;;
64894;SDS011;51588;53.702;10.208;2023-12-07T12:23:47;18.43;;;11.90;;
64894;SDS011;51588;53.702;10.208;2023-12-07T12:26:14;18.67;;;11.80;;
64894;SDS011;51588;53.702;10.208;2023-12-07T12:28:42;19.13;;;12.30;;
64894;SDS011;51588;53.702;10.208;2023-12-07T12:31:09;17.63;;;12.30;;
64894;SDS011;51588;53.702;10.208;2023-12-07T12:33:36;17.07;;;11.80;;
64894;SDS011;51588;53.702;10.208;2023-12-07T12:36:03;19.43;;;11.80;;
64894;SDS011;51588;53.702;10.208;2023-12-07T12:38:30;15.40;;;11.00;;
64894;SDS011;51588;53.702;10.208;2023-12-07T12:40:56;15.77;;;11.60;;
64894;SDS011;51588;53.702;10.208;2023-12-07T12:43:23;17.83;;;11.80;;
64894;SDS011;51588;53.702;10.208;2023-12-07T12:45:50;22.93;;;11.67;;
64894;SDS011;51588;53.702;10.208;2023-12-07T12:48:17;16.93;;;12.00;;
64894;SDS011;51588;53.702;10.208;2023-12-07T12:50:43;16.40;;;10.60;;
64894;SDS011;51588;53.702;10.208;2023-12-07T12:53:10;17.90;;;12.57;;
64894;SDS011;51588;53.702;10.208;2023-12-07T12:55:38;16.90;;;12.03;;
64894;SDS011;51588;53.702;10.208;2023-12-07T12:58:06;17.63;;;11.93;;
64894;SDS011;51588;53.702;10.208;2023-12-07T13:00:33;18.73;;;12.07;;
64894;SDS011;51588;53.702;10.208;2023-12-07T13:03:01;17.87;;;12.20;;
64894;SDS011;51588;53.702;10.208;2023-12-07T13:05:28;19.83;;;11.30;;
64894;SDS011;51588;53.702;10.208;2023-12-07T13:07:54;21.77;;;14.70;;
64894;SDS011;51588;53.702;10.208;2023-12-07T13:10:21;24.53;;;16.47;;
64894;SDS011;51588;53.702;10.208;2023-12-07T13:12:48;22.03;;;15.20;;
64894;SDS011;51588;53.702;10.208;2023-12-07T13:15:14;20.90;;;14.50;;
64894;SDS011;51588;53.702;10.208;2023-12-07T13:17:42;22.30;;;15.07;;
64894;SDS011;51588;53.702;10.208;2023-12-07T13:20:11;19.80;;;14.90;;
64894;SDS011;51588;53.702;10.208;2023-12-07T13:22:38;19.57;;;14.40;;
64894;SDS011;51588;53.702;10.208;2023-12-07T13:25:05;20.70;;;14.90;;
64894;SDS011;51588;53.702;10.208;2023-12-07T13:27:32;17.10;;;12.67;;
64894;SDS011;51588;53.702;10.208;2023-12-07T13:29:58;21.07;;;13.67;;
64894;SDS011;51588;53.702;10.208;2023-12-07T13:32:25;20.40;;;13.40;;
64894;SDS011;51588;53.702;10.208;2023-12-07T13:34:51;20.47;;;13.80;;
64894;SDS011;51588;53.702;10.208;2023-12-07T13:37:19;19.50;;;14.00;;
64894;SDS011;51588;53.702;10.208;2023-12-07T13:39:47;18.63;;;13.53;;
64894;SDS011;51588;53.702;10.208;2023-12-07T13:42:18;18.70;;;12.77;;
64894;SDS011;51588;53.702;10.208;2023-12-07T13:44:44;20.10;;;13.27;;
64894;SDS011;51588;53.702;10.208;2023-12-07T13:47:10;19.73;;;14.00;;
64894;SDS011;51588;53.702;10.208;2023-12-07T13:49:37;18.87;;;13.80;;
64894;SDS011;51588;53.702;10.208;2023-12-07T13:52:03;18.20;;;13.40;;
64894;SDS011;51588;53.702;10.208;2023-12-07T13:54:31;17.60;;;13.03;;
64894;SDS011;51588;53.702;10.208;2023-12-07T13:56:58;19.33;;;13.47;;
64894;SDS011;51588;53.702;10.208;2023-12-07T13:59:24;17.00;;;12.70;;
64894;SDS011;51588;53.702;10.208;2023-12-07T14:01:51;19.83;;;14.30;;
64894;SDS011;51588;53.702;10.208;2023-12-07T14:04:17;18.40;;;13.00;;
64894;SDS011;51588;53.702;10.208;2023-12-07T14:06:44;17.80;;;13.20;;
64894;SDS011;51588;53.702;10.208;2023-12-07T14:09:10;16.13;;;12.67;;